createdAt,value
2023-05-24T00:00:04.915Z,96364.84
2023-05-24T00:02:32.632Z,96359.00
2023-05-24T00:05:00.951Z,96365.34
2023-05-24T00:07:28.754Z,96359.34
2023-05-24T00:09:56.377Z,96357.03
2023-05-24T00:12:26.010Z,96361.00
2023-05-24T00:14:53.614Z,96372.06
2023-05-24T00:17:21.733Z,96377.09
2023-05-24T00:19:49.343Z,96380.09
2023-05-24T00:22:17.305Z,96380.78
2023-05-24T00:24:44.844Z,96392.44
2023-05-24T00:27:12.814Z,96396.44
2023-05-24T00:29:41.707Z,96391.44
2023-05-24T00:32:09.292Z,96391.44
2023-05-24T00:34:36.878Z,96382.31
2023-05-24T00:37:04.492Z,96382.91
2023-05-24T00:39:32.024Z,96386.94
2023-05-24T00:41:59.527Z,96383.25
2023-05-24T00:44:27.049Z,96378.78
2023-05-24T00:46:55.990Z,96376.13
2023-05-24T00:49:24.646Z,96373.44
2023-05-24T00:51:53.772Z,96386.06
2023-05-24T00:54:21.504Z,96377.09
2023-05-24T00:56:49.588Z,96370.47
2023-05-24T00:59:17.355Z,96373.13
2023-05-24T01:01:46.883Z,96368.78
2023-05-24T01:04:17.629Z,96362.81
2023-05-24T01:06:59.227Z,96368.81
2023-05-24T01:09:32.104Z,96368.16
2023-05-24T01:12:16.345Z,96362.31
2023-05-24T01:14:53.792Z,96359.50
2023-05-24T01:17:26.446Z,96360.16
2023-05-24T01:19:59.958Z,96361.16
2023-05-24T01:22:50.931Z,96360.81
2023-05-24T01:25:24.052Z,96360.50
2023-05-24T01:27:53.835Z,96361.97
2023-05-24T01:30:21.784Z,96375.09
2023-05-24T01:32:49.597Z,96372.06
2023-05-24T01:35:17.134Z,96372.06
2023-05-24T01:37:44.633Z,96366.41
2023-05-24T01:40:13.717Z,96365.72
2023-05-24T01:42:46.645Z,96361.91
2023-05-24T01:45:21.068Z,96361.25
2023-05-24T01:48:02.917Z,96368.91
2023-05-24T01:50:33.828Z,96366.94
2023-05-24T01:53:05.375Z,96359.50
2023-05-24T01:55:34.476Z,96361.78
2023-05-24T01:58:04.353Z,96362.25
2023-05-24T02:00:34.464Z,96370.06
2023-05-24T02:03:03.387Z,96364.09
2023-05-24T02:05:33.117Z,96365.72
2023-05-24T02:08:00.799Z,96361.88
2023-05-24T02:10:28.335Z,96367.72
2023-05-24T02:12:55.842Z,96366.38
2023-05-24T02:15:23.566Z,96370.41
2023-05-24T02:17:54.570Z,96367.09
2023-05-24T02:20:23.876Z,96372.38
2023-05-24T02:22:51.534Z,96370.09
2023-05-24T02:25:19.049Z,96362.59
2023-05-24T02:27:47.128Z,96365.63
2023-05-24T02:30:15.064Z,96365.16
2023-05-24T02:32:42.579Z,96360.19
2023-05-24T02:35:11.674Z,96361.84
2023-05-24T02:37:39.707Z,96356.84
2023-05-24T02:40:08.486Z,96363.06
2023-05-24T02:42:36.031Z,96363.72
2023-05-24T02:45:03.731Z,96373.06
2023-05-24T02:47:31.283Z,96372.19
2023-05-24T02:49:58.817Z,96367.03
2023-05-24T02:52:27.740Z,96362.19
2023-05-24T02:54:55.306Z,96368.00
2023-05-24T02:57:22.885Z,96365.91
2023-05-24T02:59:50.462Z,96367.03
2023-05-24T03:02:19.496Z,96364.44
2023-05-24T03:04:46.985Z,96358.25
2023-05-24T03:07:14.903Z,96377.91
2023-05-24T03:09:44.045Z,96372.53
2023-05-24T03:12:12.542Z,96374.75
2023-05-24T03:14:40.016Z,96368.31
2023-05-24T03:17:07.547Z,96366.50
2023-05-24T03:19:35.077Z,96376.75
2023-05-24T03:22:02.635Z,96382.22
2023-05-24T03:24:30.150Z,96389.84
2023-05-24T03:26:58.991Z,96378.03
2023-05-24T03:29:26.498Z,96384.66
2023-05-24T03:31:54.024Z,96389.31
2023-05-24T03:34:21.628Z,96385.81
2023-05-24T03:36:49.135Z,96383.44
2023-05-24T03:39:16.873Z,96387.13
2023-05-24T03:41:44.395Z,96392.78
2023-05-24T03:44:13.613Z,96391.78
2023-05-24T03:46:41.228Z,96386.09
2023-05-24T03:49:08.998Z,96378.75
2023-05-24T03:51:37.074Z,96385.78
2023-05-24T03:54:04.745Z,96386.97
2023-05-24T03:56:32.282Z,96376.44
2023-05-24T03:59:03.848Z,96373.69
2023-05-24T04:01:34.514Z,96371.53
2023-05-24T04:04:02.728Z,96386.44
2023-05-24T04:06:30.812Z,96382.06
2023-05-24T04:08:59.725Z,96376.25
2023-05-24T04:11:28.442Z,96384.47
2023-05-24T04:13:56.851Z,96381.50
2023-05-24T04:16:26.335Z,96377.16
2023-05-24T04:18:55.876Z,96370.47
2023-05-24T04:21:23.708Z,96377.25
2023-05-24T04:23:51.242Z,96385.72
2023-05-24T04:26:18.974Z,96381.19
2023-05-24T04:28:46.746Z,96376.44
2023-05-24T04:31:15.661Z,96386.44
2023-05-24T04:33:43.373Z,96378.34
2023-05-24T04:36:13.354Z,96382.16
2023-05-24T04:38:41.410Z,96380.09
2023-05-24T04:41:08.976Z,96382.47
2023-05-24T04:43:36.521Z,96380.00
2023-05-24T04:46:04.535Z,96377.66
2023-05-24T04:48:32.477Z,96383.31
2023-05-24T04:51:00.482Z,96380.31
2023-05-24T04:53:29.406Z,96381.31
2023-05-24T04:55:56.958Z,96378.84
2023-05-24T04:58:24.437Z,96380.75
2023-05-24T05:00:51.993Z,96379.94
2023-05-24T05:03:19.553Z,96373.34
2023-05-24T05:05:47.723Z,96385.81
2023-05-24T05:08:15.968Z,96384.50
2023-05-24T05:10:45.164Z,96377.34
2023-05-24T05:13:12.712Z,96384.78
2023-05-24T05:15:41.611Z,96387.06
2023-05-24T05:18:10.473Z,96384.16
2023-05-24T05:20:38.201Z,96396.00
2023-05-24T05:23:05.822Z,96401.19
2023-05-24T05:25:33.312Z,96394.59
2023-05-24T05:28:02.173Z,96398.94
2023-05-24T05:30:29.705Z,96396.69
2023-05-24T05:32:57.473Z,96382.16
2023-05-24T05:35:25.181Z,96385.13
2023-05-24T05:37:52.692Z,96391.97
2023-05-24T05:40:20.195Z,96384.47
2023-05-24T05:42:49.048Z,96377.81
2023-05-24T05:45:17.940Z,96386.13
2023-05-24T05:47:45.506Z,96389.38
2023-05-24T05:50:13.098Z,96386.06
2023-05-24T05:52:40.977Z,96374.63
2023-05-24T05:55:11.279Z,96365.88
2023-05-24T05:57:38.760Z,96373.00
2023-05-24T06:00:07.396Z,96381.25
2023-05-24T06:02:36.345Z,96376.44
2023-05-24T06:05:04.117Z,96377.44
2023-05-24T06:07:32.000Z,96383.13
2023-05-24T06:09:59.466Z,96382.78
2023-05-24T06:12:27.005Z,96375.78
2023-05-24T06:14:57.557Z,96374.50
2023-05-24T06:17:25.518Z,96384.16
2023-05-24T06:19:55.092Z,96380.81
2023-05-24T06:22:22.943Z,96378.00
2023-05-24T06:24:50.489Z,96381.66
2023-05-24T06:27:17.973Z,96390.63
2023-05-24T06:29:45.672Z,96387.53
2023-05-24T06:32:13.209Z,96388.59
2023-05-24T06:34:41.905Z,96387.75
2023-05-24T06:37:15.082Z,96388.53
2023-05-24T06:39:42.759Z,96387.31
2023-05-24T06:42:10.518Z,96382.56
2023-05-24T06:44:38.015Z,96382.38
2023-05-24T06:47:05.990Z,96390.63
2023-05-24T06:49:34.112Z,96387.13
2023-05-24T06:52:01.607Z,96395.44
2023-05-24T06:54:30.434Z,96398.56
2023-05-24T06:56:57.910Z,96400.72
2023-05-24T06:59:25.710Z,96397.88
2023-05-24T07:01:57.921Z,96407.03
2023-05-24T07:04:28.251Z,96412.34
2023-05-24T07:06:55.872Z,96410.88
2023-05-24T07:09:23.373Z,96408.22
2023-05-24T07:11:52.341Z,96414.84
2023-05-24T07:14:19.855Z,96416.22
2023-05-24T07:16:48.631Z,96429.69
2023-05-24T07:19:16.498Z,96426.34
2023-05-24T07:21:43.978Z,96423.59
2023-05-24T07:24:12.643Z,96415.97
2023-05-24T07:26:41.653Z,96429.16
2023-05-24T07:29:10.535Z,96431.34
2023-05-24T07:31:38.232Z,96441.63
2023-05-24T07:34:05.754Z,96436.00
2023-05-24T07:36:35.011Z,96434.81
2023-05-24T07:39:04.850Z,96442.59
2023-05-24T07:41:33.338Z,96431.84
2023-05-24T07:44:00.947Z,96431.69
2023-05-24T07:46:29.873Z,96432.19
2023-05-24T07:48:57.373Z,96439.31
2023-05-24T07:51:25.592Z,96437.25
2023-05-24T07:53:53.196Z,96436.22
2023-05-24T07:56:21.155Z,96435.13
2023-05-24T07:58:49.203Z,96438.44
2023-05-24T08:01:18.357Z,96443.66
2023-05-24T08:03:47.767Z,96442.47
2023-05-24T08:06:15.332Z,96445.19
2023-05-24T08:08:42.922Z,96442.97
2023-05-24T08:11:10.414Z,96453.72
2023-05-24T08:13:38.312Z,96448.81
2023-05-24T08:16:06.174Z,96453.84
2023-05-24T08:18:33.797Z,96456.97
2023-05-24T08:21:02.845Z,96457.63
2023-05-24T08:23:30.802Z,96463.06
2023-05-24T08:25:59.408Z,96453.41
2023-05-24T08:28:27.175Z,96460.16
2023-05-24T08:30:54.766Z,96456.13
2023-05-24T08:33:23.215Z,96463.44
2023-05-24T08:35:50.903Z,96466.81
2023-05-24T08:38:19.893Z,96466.53
2023-05-24T08:40:48.932Z,96455.56
2023-05-24T08:43:16.483Z,96464.28
2023-05-24T08:45:45.043Z,96465.19
2023-05-24T08:48:13.906Z,96460.34
2023-05-24T08:50:43.187Z,96461.69
2023-05-24T08:53:11.455Z,96470.81
2023-05-24T08:55:40.665Z,96474.31
2023-05-24T08:58:09.635Z,96477.69
2023-05-24T09:00:37.198Z,96479.75
2023-05-24T09:03:06.236Z,96479.00
2023-05-24T09:05:34.803Z,96481.91
2023-05-24T09:08:03.087Z,96476.91
2023-05-24T09:10:44.952Z,96478.38
2023-05-24T09:13:23.997Z,96485.88
2023-05-24T09:15:51.798Z,96485.47
2023-05-24T09:18:19.395Z,96480.09
2023-05-24T09:20:47.284Z,96487.34
2023-05-24T09:23:15.786Z,96493.41
2023-05-24T09:25:44.963Z,96490.22
2023-05-24T09:28:15.885Z,96496.81
2023-05-24T09:30:46.070Z,96486.28
2023-05-24T09:33:13.872Z,96485.56
2023-05-24T09:35:43.095Z,96474.59
2023-05-24T09:38:18.640Z,96479.25
2023-05-24T09:40:46.713Z,96481.59
2023-05-24T09:43:14.236Z,96482.69
2023-05-24T09:45:47.580Z,96478.47
2023-05-24T09:48:16.579Z,96466.56
2023-05-24T09:50:45.740Z,96480.19
2023-05-24T09:53:13.517Z,96472.84
2023-05-24T09:55:41.267Z,96478.19
2023-05-24T09:58:11.538Z,96474.63
2023-05-24T10:00:41.326Z,96475.16
2023-05-24T10:03:15.138Z,96476.06
2023-05-24T10:05:45.047Z,96481.00
2023-05-24T10:08:14.243Z,96475.09
2023-05-24T10:10:43.173Z,96462.75
2023-05-24T10:13:11.582Z,96466.00
2023-05-24T10:15:39.202Z,96458.25
2023-05-24T10:18:11.370Z,96468.25
2023-05-24T10:20:42.621Z,96475.19
2023-05-24T10:23:11.706Z,96482.09
2023-05-24T10:25:45.667Z,96483.03
2023-05-24T10:28:15.461Z,96486.34
2023-05-24T10:30:51.580Z,96484.88
2023-05-24T10:33:20.293Z,96483.84
2023-05-24T10:35:49.407Z,96480.53
2023-05-24T10:38:17.085Z,96474.69
2023-05-24T10:40:44.720Z,96463.44
2023-05-24T10:43:12.318Z,96470.97
2023-05-24T10:45:41.380Z,96471.28
2023-05-24T10:48:37.517Z,96469.94
2023-05-24T10:51:33.402Z,96471.47
2023-05-24T10:54:13.453Z,96465.13
2023-05-24T10:56:42.523Z,96471.97
2023-05-24T10:59:10.440Z,96475.00
2023-05-24T11:01:37.974Z,96479.75
2023-05-24T11:04:10.063Z,96490.22
2023-05-24T11:06:49.510Z,96487.44
2023-05-24T11:09:19.907Z,96484.84
2023-05-24T11:11:48.795Z,96482.03
2023-05-24T11:14:20.598Z,96473.09
2023-05-24T11:16:51.353Z,96466.75
2023-05-24T11:19:20.414Z,96465.97
2023-05-24T11:21:51.584Z,96472.03
2023-05-24T11:24:20.092Z,96459.13
2023-05-24T11:26:47.891Z,96479.97
2023-05-24T11:29:17.700Z,96481.72
2023-05-24T11:31:49.648Z,96471.34
2023-05-24T11:34:18.442Z,96467.81
2023-05-24T11:36:47.010Z,96474.44
2023-05-24T11:39:16.563Z,96474.28
2023-05-24T11:41:44.851Z,96486.63
2023-05-24T11:44:13.524Z,96487.34
2023-05-24T11:46:41.487Z,96484.81
2023-05-24T11:49:13.996Z,96476.41
2023-05-24T11:51:41.672Z,96474.25
2023-05-24T11:54:09.211Z,96470.41
2023-05-24T11:56:38.079Z,96478.81
2023-05-24T11:59:16.776Z,96471.97
2023-05-24T12:01:45.331Z,96462.69
2023-05-24T12:04:13.220Z,96460.75
2023-05-24T12:06:42.785Z,96457.31
2023-05-24T12:09:13.523Z,96464.81
2023-05-24T12:11:43.635Z,96463.50
2023-05-24T12:14:14.878Z,96463.44
2023-05-24T12:16:44.387Z,96455.38
2023-05-24T12:19:30.890Z,96450.94
2023-05-24T12:22:01.114Z,96457.66
2023-05-24T12:24:29.003Z,96457.88
2023-05-24T12:27:02.706Z,96456.19
2023-05-24T12:29:34.147Z,96464.28
2023-05-24T12:32:01.888Z,96469.88
2023-05-24T12:34:30.105Z,96468.47
2023-05-24T12:36:57.817Z,96466.50
2023-05-24T12:39:31.094Z,96466.13
2023-05-24T12:42:01.564Z,96446.66
2023-05-24T12:44:31.282Z,96453.97
2023-05-24T12:46:59.575Z,96456.25
2023-05-24T12:49:27.901Z,96458.69
2023-05-24T12:51:56.595Z,96452.50
2023-05-24T12:54:25.839Z,96455.44
2023-05-24T12:56:56.763Z,96453.03
2023-05-24T12:59:27.206Z,96450.69
2023-05-24T13:01:54.871Z,96445.97
2023-05-24T13:04:26.030Z,96444.75
2023-05-24T13:06:53.640Z,96431.94
2023-05-24T13:09:23.309Z,96449.69
2023-05-24T13:11:51.346Z,96456.56
2023-05-24T13:14:20.198Z,96456.78
2023-05-24T13:16:49.591Z,96434.16
2023-05-24T13:19:17.746Z,96435.38
2023-05-24T13:21:45.619Z,96442.97
2023-05-24T13:24:14.651Z,96434.13
2023-05-24T13:26:42.387Z,96440.41
2023-05-24T13:31:40.564Z,96436.69
2023-05-24T13:34:10.669Z,96424.25
2023-05-24T13:36:38.516Z,96428.75
2023-05-24T13:39:15.414Z,96428.03
2023-05-24T13:41:43.920Z,96434.31
2023-05-24T13:44:12.057Z,96431.88
2023-05-24T13:46:40.260Z,96422.56
2023-05-24T13:49:09.212Z,96423.56
2023-05-24T13:51:40.059Z,96417.28
2023-05-24T13:54:08.303Z,96428.09
2023-05-24T13:56:36.340Z,96433.19
2023-05-24T13:59:05.078Z,96434.56
2023-05-24T14:01:33.665Z,96431.72
2023-05-24T14:04:02.514Z,96438.13
2023-05-24T14:06:30.377Z,96430.50
2023-05-24T14:08:59.384Z,96433.84
2023-05-24T14:11:27.796Z,96425.38
2023-05-24T14:14:54.251Z,96433.88
2023-05-24T14:16:43.018Z,96433.06
2023-05-24T14:19:10.796Z,96428.09
2023-05-24T14:21:38.317Z,96441.66
2023-05-24T14:24:07.430Z,96437.34
2023-05-24T14:26:34.957Z,96435.94
2023-05-24T14:29:03.083Z,96426.38
2023-05-24T14:31:30.609Z,96438.41
2023-05-24T14:33:58.577Z,96445.25
2023-05-24T14:36:26.066Z,96438.34
2023-05-24T14:38:53.662Z,96437.31
2023-05-24T14:41:22.851Z,96440.63
2023-05-24T14:43:51.075Z,96437.25
2023-05-24T14:46:18.902Z,96444.44
2023-05-24T14:48:46.452Z,96432.34
2023-05-24T14:51:13.966Z,96442.78
2023-05-24T14:53:41.479Z,96442.09
2023-05-24T14:56:09.932Z,96443.75
2023-05-24T14:58:38.882Z,96447.00
2023-05-24T15:01:08.029Z,96452.81
2023-05-24T15:03:35.934Z,96447.00
2023-05-24T15:06:05.317Z,96450.78
2023-05-24T15:08:34.768Z,96447.59
2023-05-24T15:11:02.617Z,96452.28
2023-05-24T15:13:30.153Z,96444.44
2023-05-24T15:16:00.397Z,96440.84
2023-05-24T15:18:28.905Z,96442.81
2023-05-24T15:20:56.786Z,96431.75
2023-05-24T15:23:25.736Z,96446.00
2023-05-24T15:25:53.245Z,96436.38
2023-05-24T15:28:20.820Z,96435.94
2023-05-24T15:30:48.353Z,96439.41
2023-05-24T15:33:17.456Z,96432.81
2023-05-24T15:35:45.054Z,96436.53
2023-05-24T15:38:12.716Z,96427.16
2023-05-24T15:40:42.044Z,96427.72
2023-05-24T15:43:09.751Z,96429.09
2023-05-24T15:45:37.468Z,96438.75
2023-05-24T15:48:05.642Z,96435.06
2023-05-24T15:50:53.963Z,96432.25
2023-05-24T15:53:22.042Z,96432.41
2023-05-24T15:55:49.636Z,96418.97
2023-05-24T15:58:17.225Z,96420.25
2023-05-24T16:00:45.057Z,96428.00
2023-05-24T16:03:15.446Z,96422.69
2023-05-24T16:05:44.723Z,96430.44
2023-05-24T16:08:13.120Z,96428.81
2023-05-24T16:10:40.804Z,96429.56
2023-05-24T16:13:08.467Z,96434.84
2023-05-24T16:15:37.021Z,96431.72
2023-05-24T16:18:05.015Z,96423.66
2023-05-24T16:20:32.578Z,96432.22
2023-05-24T16:23:03.073Z,96432.66
2023-05-24T16:25:30.559Z,96429.50
2023-05-24T16:27:58.113Z,96439.69
2023-05-24T16:30:25.620Z,96428.16
2023-05-24T16:32:53.195Z,96439.69
2023-05-24T16:35:20.982Z,96448.13
2023-05-24T16:37:49.792Z,96444.44
2023-05-24T16:40:18.714Z,96441.59
2023-05-24T16:42:46.367Z,96443.00
2023-05-24T16:45:13.887Z,96437.66
2023-05-24T16:47:41.739Z,96435.41
2023-05-24T16:50:14.811Z,96440.44
2023-05-24T16:52:42.596Z,96432.56
2023-05-24T16:55:11.697Z,96430.31
2023-05-24T16:57:40.565Z,96433.91
2023-05-24T17:00:09.705Z,96431.78
2023-05-24T17:02:37.496Z,96437.19
2023-05-24T17:05:05.454Z,96439.53
2023-05-24T17:07:32.964Z,96434.03
2023-05-24T17:10:00.505Z,96440.81
2023-05-24T17:12:29.594Z,96438.72
2023-05-24T17:14:58.418Z,96437.59
2023-05-24T17:17:26.236Z,96430.72
2023-05-24T17:19:53.872Z,96440.25
2023-05-24T17:22:21.376Z,96439.47
2023-05-24T17:24:48.884Z,96443.28
2023-05-24T17:27:19.891Z,96438.50
2023-05-24T17:29:49.477Z,96447.53
2023-05-24T17:32:18.421Z,96444.28
2023-05-24T17:34:45.906Z,96444.69
2023-05-24T17:37:13.439Z,96444.69
2023-05-24T17:39:40.943Z,96446.38
2023-05-24T17:42:08.522Z,96445.81
2023-05-24T17:44:36.034Z,96453.72
2023-05-24T17:47:03.553Z,96461.53
2023-05-24T17:49:32.740Z,96451.13
2023-05-24T17:52:00.947Z,96462.72
2023-05-24T17:54:28.803Z,96456.13
2023-05-24T17:56:56.651Z,96456.75
2023-05-24T17:59:24.178Z,96461.53
2023-05-24T18:01:51.857Z,96460.97
2023-05-24T18:04:19.814Z,96471.44
2023-05-24T18:06:48.664Z,96463.28
2023-05-24T18:09:16.887Z,96460.06
2023-05-24T18:11:44.411Z,96478.66
2023-05-24T18:14:11.939Z,96476.72
2023-05-24T18:16:39.738Z,96470.59
2023-05-24T18:19:07.366Z,96473.06
2023-05-24T18:21:34.916Z,96471.63
2023-05-24T18:24:04.271Z,96470.00
2023-05-24T18:26:31.771Z,96477.09
2023-05-24T18:28:59.376Z,96465.22
2023-05-24T18:31:26.886Z,96474.63
2023-05-24T18:33:55.035Z,96477.91
2023-05-24T18:36:22.737Z,96484.22
2023-05-24T18:38:50.365Z,96481.22
2023-05-24T18:41:19.276Z,96489.50
2023-05-24T18:43:46.785Z,96479.09
2023-05-24T18:46:14.879Z,96486.06
2023-05-24T18:48:42.852Z,96487.63
2023-05-24T18:51:10.906Z,96486.78
2023-05-24T18:53:38.503Z,96490.78
2023-05-24T18:56:06.698Z,96486.41
2023-05-24T18:58:35.518Z,96493.41
2023-05-24T19:01:03.106Z,96497.25
2023-05-24T19:03:30.751Z,96502.44
2023-05-24T19:05:58.368Z,96509.09
2023-05-24T19:08:26.026Z,96511.91
2023-05-24T19:10:53.768Z,96517.63
2023-05-24T19:13:21.257Z,96528.91
2023-05-24T19:15:50.173Z,96524.41
2023-05-24T19:18:17.701Z,96521.06
2023-05-24T19:20:45.294Z,96527.09
2023-05-24T19:23:12.794Z,96526.56
2023-05-24T19:25:42.271Z,96525.75
2023-05-24T19:28:11.204Z,96535.06
2023-05-24T19:30:38.698Z,96544.84
2023-05-24T19:33:07.806Z,96534.06
2023-05-24T19:35:36.569Z,96532.56
2023-05-24T19:38:04.189Z,96539.41
2023-05-24T19:40:31.739Z,96544.72
2023-05-24T19:42:59.251Z,96535.38
2023-05-24T19:45:26.790Z,96536.56
2023-05-24T19:47:54.339Z,96543.84
2023-05-24T19:50:23.344Z,96551.19
2023-05-24T19:52:50.931Z,96543.16
2023-05-24T19:55:18.421Z,96547.31
2023-05-24T19:57:46.039Z,96545.63
2023-05-24T20:00:14.194Z,96542.38
2023-05-24T20:02:41.861Z,96549.63
2023-05-24T20:05:09.976Z,96553.94
2023-05-24T20:07:38.807Z,96554.59
2023-05-24T20:10:07.655Z,96556.09
2023-05-24T20:12:35.199Z,96554.16
2023-05-24T20:15:02.882Z,96559.53
2023-05-24T20:17:30.534Z,96562.88
2023-05-24T20:19:58.111Z,96563.03
2023-05-24T20:22:25.734Z,96562.69
2023-05-24T20:24:54.598Z,96565.94
2023-05-24T20:27:22.282Z,96574.84
2023-05-24T20:29:49.770Z,96568.72
2023-05-24T20:32:17.388Z,96565.16
2023-05-24T20:34:44.882Z,96565.38
2023-05-24T20:37:12.403Z,96560.91
2023-05-24T20:39:39.912Z,96561.91
2023-05-24T20:42:08.919Z,96567.34
2023-05-24T20:44:36.427Z,96563.38
2023-05-24T20:47:04.025Z,96568.00
2023-05-24T20:49:31.563Z,96555.16
2023-05-24T20:51:59.175Z,96559.25
2023-05-24T20:54:26.686Z,96564.53
2023-05-24T20:56:54.226Z,96554.31
2023-05-24T20:59:23.245Z,96564.25
2023-05-24T21:01:50.868Z,96564.25
2023-05-24T21:04:19.439Z,96564.69
2023-05-24T21:06:46.946Z,96566.22
2023-05-24T21:09:14.430Z,96573.00
2023-05-24T21:11:44.067Z,96570.00
2023-05-24T21:14:11.617Z,96579.78
2023-05-24T21:16:40.450Z,96581.75
2023-05-24T21:19:08.046Z,96580.66
2023-05-24T21:21:35.998Z,96581.97
2023-05-24T21:24:03.557Z,96588.47
2023-05-24T21:26:31.070Z,96588.63
2023-05-24T21:28:58.860Z,96593.19
2023-05-24T21:31:29.061Z,96588.00
2023-05-24T21:33:58.768Z,96598.56
2023-05-24T21:36:26.604Z,96588.91
2023-05-24T21:38:54.130Z,96593.13
2023-05-24T21:41:22.268Z,96594.66
2023-05-24T21:43:49.887Z,96591.84
2023-05-24T21:46:17.415Z,96601.50
2023-05-24T21:48:44.948Z,96598.97
2023-05-24T21:51:15.505Z,96606.75
2023-05-24T21:53:43.030Z,96600.88
2023-05-24T21:56:10.734Z,96604.59
2023-05-24T21:58:38.876Z,96608.56
2023-05-24T22:01:08.470Z,96617.34
2023-05-24T22:03:36.124Z,96616.13
2023-05-24T22:06:03.641Z,96616.13
2023-05-24T22:08:32.492Z,96614.16
2023-05-24T22:11:00.028Z,96619.16
2023-05-24T22:13:27.591Z,96616.69
2023-05-24T22:15:55.123Z,96617.44
2023-05-24T22:18:22.594Z,96607.66
2023-05-24T22:20:51.076Z,96609.78
2023-05-24T22:23:18.622Z,96621.16
2023-05-24T22:25:47.691Z,96618.91
2023-05-24T22:28:15.198Z,96621.56
2023-05-24T22:30:42.711Z,96605.97
2023-05-24T22:33:10.393Z,96607.84
2023-05-24T22:35:37.917Z,96608.22
2023-05-24T22:38:05.556Z,96613.06
2023-05-24T22:40:33.155Z,96615.94
2023-05-24T22:43:01.963Z,96614.75
2023-05-24T22:45:29.458Z,96610.94
2023-05-24T22:47:58.408Z,96610.75
2023-05-24T22:50:26.932Z,96615.97
2023-05-24T22:52:56.518Z,96615.41
2023-05-24T22:55:24.515Z,96611.63
2023-05-24T22:57:52.081Z,96613.50
2023-05-24T23:00:21.714Z,96618.13
2023-05-24T23:02:49.233Z,96626.03
2023-05-24T23:05:16.965Z,96629.28
2023-05-24T23:07:45.930Z,96627.94
2023-05-24T23:10:13.437Z,96633.91
2023-05-24T23:12:42.137Z,96633.06
2023-05-24T23:15:11.445Z,96631.69
2023-05-24T23:17:40.332Z,96629.34
2023-05-24T23:20:10.377Z,96626.97
2023-05-24T23:22:38.878Z,96631.31
2023-05-24T23:25:07.909Z,96628.59
2023-05-24T23:27:35.496Z,96628.06
2023-05-24T23:30:03.003Z,96634.66
2023-05-24T23:32:30.536Z,96625.31
2023-05-24T23:34:59.399Z,96631.56
2023-05-24T23:37:26.924Z,96629.34
2023-05-24T23:39:54.406Z,96633.38
2023-05-24T23:42:21.911Z,96632.44
2023-05-24T23:44:49.378Z,96630.72
2023-05-24T23:47:16.884Z,96623.44
2023-05-24T23:49:44.360Z,96622.47
2023-05-24T23:52:13.216Z,96623.53
2023-05-24T23:54:40.837Z,96617.09
2023-05-24T23:57:08.437Z,96617.53
2023-05-24T23:59:36.362Z,96623.06
